Hlavní strana
METAR-TAF:

METAR-TAF

Letiště :

Lechfeld, Německo

zeměpisná šířka: 48-11N, zeměpisná délka: 010-52E, výška: 555 m

Aktuální stav počasí

Zpráva byla vytvořena před 16 minutami, v 10:20 UTC
Severní vítr 3 kt
Teplota 16°C
Vlhkost vzduchu 55%
Tlak 1020 hPa
Viditelnost 10 km a více

METAR: ETSL 171020Z 35003KT 9999 16/07 Q1020 BLU+BLU+

Čas: 12:36 (10:36 UTC)

Předpověď počasí

Zpráva byla vytvořena před 2 hodinami a 57 minutami, v 07:39 UTC
Předpověď platná od 17 v 08 UTC do 17 v 17 UTC
vítr z různých směrů 3 kt
Viditelnost 10 km a více
Skoro jasno ve výšce 11000 ft

TAF: ETSL 170739Z 1708/1717 VRB03KT 9999 NSW FEW110 BY ETGL

Stav a předpovědi počasí z více než 4 000 letišť (zprávy METAR a TAF).

Červené a žluté tečky na mapě představují dostupné meteorologické stanice.

Když kurzor umístíte na tečku, zobrazí se název stanice.

Pak kliknutím zobrazíte stav a předpověď počasí.

Chcete-li změnit mapu, kliknutím na zelené tlačítko se znaménkem +mapu přiblížíte, kliknutím na zelené tlačítko se znaménkem – mapu oddálíte a kliknutím na zelené šipky přejdete na sousední mapy.


METAR-TAF: